Time;durP1;ratioP1;P1;durP2;ratioP2;P2;SDS_P1;SDS_P2;PMS_P1;PMS_P2;Temp;Humidity;BMP_temperature;BMP_pressure;BME280_temperature;BME280_humidity;BME280_pressure;Samples;Min_cycle;Max_cycle;Signal;HPM_P1;HPM_P2
2024/04/06 00:01:36;;;;;;;3.20;2.17;;;;;;;16.60;76.72;155626.72;5029388;28;20451;-91
2024/04/06 00:04:02;;;;;;;2.00;1.80;;;;;;;16.53;76.58;155608.53;5029325;28;20440;-92
2024/04/06 00:06:29;;;;;;;2.97;2.10;;;;;;;16.50;76.68;155600.66;5029655;28;20439;-91
2024/04/06 00:08:54;;;;;;;2.37;1.80;;;;;;;16.41;74.65;155578.56;5031220;28;20523;-91
2024/04/06 00:11:21;;;;;;;1.97;1.77;;;;;;;16.42;76.06;155579.88;5028475;28;20441;-91
2024/04/06 00:13:49;;;;;;;2.53;1.93;;;;;;;16.42;76.46;155579.88;5029297;28;20297;-91
2024/04/06 00:16:16;;;;;;;3.50;2.00;;;;;;;16.41;77.04;155578.56;5031036;28;20452;-91
2024/04/06 00:18:41;;;;;;;2.83;1.70;;;;;;;16.41;76.50;155577.28;5031286;28;20535;-90
2024/04/06 00:21:08;;;;;;;2.23;1.90;;;;;;;16.42;77.31;155579.88;5012515;28;21096;-91
2024/04/06 00:23:34;;;;;;;2.73;1.90;;;;;;;16.43;77.77;155583.78;5029776;28;20230;-92
2024/04/06 00:26:00;;;;;;;3.50;2.00;;;;;;;16.42;79.59;155579.88;5029687;28;20463;-92
2024/04/06 00:28:26;;;;;;;2.63;1.90;;;;;;;16.40;79.73;155574.66;5029936;28;20203;-91
2024/04/06 00:30:55;;;;;;;2.20;1.77;;;;;;;16.38;79.96;155569.47;5023759;28;20469;-92
2024/04/06 00:33:20;;;;;;;4.10;2.00;;;;;;;16.38;80.51;155569.47;5016465;28;20231;-91
2024/04/06 00:35:47;;;;;;;2.40;2.20;;;;;;;16.36;81.07;155564.28;5022360;28;21001;-91
2024/04/06 00:38:13;;;;;;;2.40;2.20;;;;;;;16.30;81.01;155549.97;5030348;28;20289;-91
2024/04/06 00:40:39;;;;;;;3.10;2.37;;;;;;;16.26;79.96;155538.25;5030751;28;20551;-91
2024/04/06 00:43:05;;;;;;;2.30;1.90;;;;;;;16.21;78.69;155525.25;5012517;28;20206;-90
2024/04/06 00:45:31;;;;;;;3.30;1.70;;;;;;;16.20;79.47;155522.66;5030973;28;20452;-91
2024/04/06 00:47:59;;;;;;;2.40;1.80;;;;;;;16.18;79.99;155518.75;5012770;28;20257;-92
2024/04/06 00:50:26;;;;;;;2.87;2.13;;;;;;;16.16;79.73;155512.25;5030127;28;20915;-92
2024/04/06 00:52:51;;;;;;;2.03;1.80;;;;;;;16.14;80.05;155507.06;5030500;28;20582;-93
2024/04/06 00:55:18;;;;;;;3.83;2.20;;;;;;;16.08;78.88;155491.44;5030638;28;20459;-91
2024/04/06 00:57:44;;;;;;;2.27;2.07;;;;;;;16.03;77.74;155478.44;5031046;28;20260;-92
2024/04/06 01:00:11;;;;;;;2.33;2.00;;;;;;;16.01;78.56;155473.25;5031087;28;20817;-91
2024/04/06 01:02:37;;;;;;;2.10;1.83;;;;;;;15.94;78.01;155455.06;5015100;28;20526;-92
2024/04/06 01:05:05;;;;;;;2.57;2.00;;;;;;;15.88;78.32;155439.44;5032829;28;20444;-92
2024/04/06 01:07:31;;;;;;;2.23;2.03;;;;;;;15.83;78.09;155429.03;5022939;28;20455;-92
2024/04/06 01:09:57;;;;;;;2.67;2.47;;;;;;;15.78;78.91;155414.72;5011792;28;20897;-93
2024/04/06 01:12:23;;;;;;;3.00;2.20;;;;;;;15.75;79.50;155406.97;5012527;28;20309;-93
2024/04/06 01:14:50;;;;;;;2.27;2.07;;;;;;;15.67;77.89;155387.41;5012299;28;20447;-93
2024/04/06 01:17:15;;;;;;;3.30;2.20;;;;;;;15.67;79.38;155387.41;5030515;28;20209;-93
2024/04/06 01:19:42;;;;;;;2.40;1.93;;;;;;;15.66;78.51;155384.84;5028681;28;20448;-93
2024/04/06 01:22:09;;;;;;;2.20;1.93;;;;;;;15.69;78.91;155392.66;5029438;28;20681;-93
2024/04/06 01:24:37;;;;;;;2.30;2.10;;;;;;;15.65;80.34;155380.91;5029638;28;20526;-94
2024/04/06 01:27:03;;;;;;;2.50;2.20;;;;;;;15.63;80.98;155375.72;5030028;28;20458;-93
2024/04/06 01:29:30;;;;;;;4.00;2.17;;;;;;;15.58;79.26;155364.03;5028369;28;20471;-94
2024/04/06 01:31:56;;;;;;;2.03;1.60;;;;;;;15.58;80.05;155362.75;5030002;28;20692;-93
2024/04/06 01:34:23;;;;;;;1.97;1.60;;;;;;;15.53;79.48;155351.06;5030315;28;20519;-94
2024/04/06 01:36:48;;;;;;;2.53;1.90;;;;;;;15.49;78.58;155340.63;5029181;28;20451;-93
2024/04/06 01:39:15;;;;;;;2.87;1.80;;;;;;;15.48;79.89;155338.06;5028753;28;20534;-92
2024/04/06 01:41:45;;;;;;;2.83;2.30;;;;;;;15.46;80.01;155331.56;5012744;28;20213;-93
2024/04/06 01:44:12;;;;;;;2.23;1.83;;;;;;;15.45;80.47;155330.19;5006011;28;20449;-93
2024/04/06 01:46:37;;;;;;;2.30;2.00;;;;;;;15.38;79.79;155310.72;5010561;28;20803;-93
2024/04/06 01:49:04;;;;;;;2.37;2.10;;;;;;;15.33;80.35;155298.97;5011224;28;20950;-93
2024/04/06 01:51:30;;;;;;;3.33;2.13;;;;;;;15.33;80.78;155298.97;5010457;28;20203;-92
2024/04/06 01:53:56;;;;;;;2.53;2.10;;;;;;;15.29;80.68;155288.63;4994037;28;20495;-93
2024/04/06 01:56:22;;;;;;;2.83;2.20;;;;;;;15.33;83.99;155298.97;5029089;28;20218;-92
2024/04/06 01:58:50;;;;;;;2.63;2.00;;;;;;;15.26;83.81;155280.81;5030594;28;20463;-93
2024/04/06 02:01:15;;;;;;;3.27;2.40;;;;;;;15.22;83.95;155270.44;5031584;28;20210;-93
2024/04/06 02:03:42;;;;;;;2.93;2.03;;;;;;;15.17;83.53;155258.72;5014199;28;20530;-94
2024/04/06 02:06:08;;;;;;;2.63;2.40;;;;;;;15.16;84.39;155254.81;5031603;28;20217;-91
2024/04/06 02:08:35;;;;;;;2.40;2.10;;;;;;;15.11;83.75;155241.84;5030789;28;20467;-93
2024/04/06 02:11:01;;;;;;;3.47;2.43;;;;;;;15.10;84.01;155239.22;5031049;28;20482;-92
2024/04/06 02:13:27;;;;;;;3.37;2.33;;;;;;;15.06;82.90;155228.84;5031095;28;20487;-93
2024/04/06 02:15:54;;;;;;;2.50;1.90;;;;;;;15.03;81.54;155221.03;5030163;28;20291;-93
2024/04/06 02:18:21;;;;;;;3.00;2.17;;;;;;;15.00;81.67;155213.25;5031527;28;20431;-93
2024/04/06 02:20:46;;;;;;;3.40;2.13;;;;;;;14.99;82.64;155211.94;5030561;28;20440;-93
2024/04/06 02:23:13;;;;;;;4.80;2.67;;;;;;;14.96;82.10;155202.81;5028594;28;20816;-93
2024/04/06 02:25:38;;;;;;;2.70;2.20;;;;;;;14.95;82.77;155200.25;5020406;28;20218;-93
2024/04/06 02:28:05;;;;;;;2.60;1.93;;;;;;;14.90;82.21;155187.28;5018177;28;20448;-93
2024/04/06 02:30:32;;;;;;;3.93;1.97;;;;;;;14.88;81.79;155182.09;5030128;28;20246;-93
2024/04/06 02:32:59;;;;;;;3.20;2.30;;;;;;;14.87;82.49;155179.47;5030037;28;20522;-93
2024/04/06 02:35:26;;;;;;;2.50;2.10;;;;;;;14.86;82.80;155176.84;5029121;28;20873;-93
2024/04/06 02:37:51;;;;;;;3.07;2.50;;;;;;;14.82;82.63;155166.47;5031181;28;21001;-93
2024/04/06 02:40:18;;;;;;;2.10;1.87;;;;;;;14.79;82.50;155158.69;5035802;28;20432;-92
2024/04/06 02:42:44;;;;;;;5.93;2.47;;;;;;;14.76;82.17;155152.19;5041962;28;20230;-93
2024/04/06 02:45:10;;;;;;;2.30;2.10;;;;;;;14.73;81.21;155144.38;5025880;28;20451;-93
2024/04/06 02:47:36;;;;;;;2.73;2.20;;;;;;;14.72;80.58;155140.50;5035953;28;20447;-93
2024/04/06 02:50:05;;;;;;;3.07;1.90;;;;;;;14.71;80.45;155137.91;5034758;28;20506;-92
2024/04/06 02:52:30;;;;;;;3.83;2.30;;;;;;;14.75;81.66;155148.25;5017304;28;20254;-93
2024/04/06 02:54:57;;;;;;;2.43;2.10;;;;;;;14.73;82.05;155144.38;5033519;28;20439;-93
2024/04/06 02:57:22;;;;;;;2.47;2.10;;;;;;;14.73;81.39;155144.38;5033512;28;20257;-93
2024/04/06 02:59:49;;;;;;;2.17;1.70;;;;;;;14.74;81.49;155145.69;5039535;28;20803;-92
2024/04/06 03:02:15;;;;;;;3.30;1.90;;;;;;;14.75;81.60;155148.25;5040442;28;20226;-91
2024/04/06 03:04:42;;;;;;;2.50;1.80;;;;;;;14.81;82.97;155163.88;5028350;28;20487;-92
2024/04/06 03:07:09;;;;;;;2.63;1.97;;;;;;;14.80;83.00;155161.31;5034202;28;20225;-93
2024/04/06 03:09:36;;;;;;;2.70;2.50;;;;;;;14.80;82.38;155161.31;5032184;28;20444;-93
2024/04/06 03:12:02;;;;;;;2.80;1.97;;;;;;;14.82;83.23;155166.47;5033769;28;20428;-93
2024/04/06 03:14:29;;;;;;;2.63;1.90;;;;;;;14.79;81.88;155158.69;5014834;28;20470;-93
2024/04/06 03:16:54;;;;;;;4.43;2.37;;;;;;;14.80;82.36;155161.31;4994701;28;21025;-92
2024/04/06 03:19:21;;;;;;;2.20;1.80;;;;;;;14.77;82.01;155154.81;5017405;28;20456;-92
2024/04/06 03:21:48;;;;;;;5.80;2.30;;;;;;;14.77;82.97;155153.50;5025560;28;20206;-93
2024/04/06 03:24:16;;;;;;;2.90;2.40;;;;;;;14.74;83.58;155145.69;5033588;28;20448;-91
2024/04/06 03:26:42;;;;;;;2.60;2.40;;;;;;;14.71;84.01;155137.91;5033476;28;20428;-93
2024/04/06 03:29:08;;;;;;;3.30;2.50;;;;;;;14.66;83.88;155124.91;5031993;28;20455;-88
2024/04/06 03:31:34;;;;;;;4.17;2.57;;;;;;;14.64;84.96;155122.28;5033666;28;20558;-93
2024/04/06 03:34:00;;;;;;;2.60;2.20;;;;;;;14.59;84.72;155109.31;5033870;28;20674;-91
2024/04/06 03:36:26;;;;;;;2.63;2.40;;;;;;;14.55;84.84;155098.94;5015920;28;20210;-90
2024/04/06 03:38:52;;;;;;;3.17;2.23;;;;;;;14.49;84.56;155083.34;5027617;28;20464;-92
2024/04/06 03:41:20;;;;;;;2.80;2.47;;;;;;;14.41;83.46;155062.56;5032542;28;20245;-92
2024/04/06 03:43:47;;;;;;;2.90;2.50;;;;;;;14.38;83.56;155053.47;5032842;28;20565;-93
2024/04/06 03:46:13;;;;;;;2.97;2.33;;;;;;;14.36;84.34;155048.28;5034350;28;20934;-92
2024/04/06 03:48:40;;;;;;;3.80;2.23;;;;;;;14.27;83.45;155026.13;5034023;28;20475;-92
2024/04/06 03:51:06;;;;;;;2.77;1.97;;;;;;;14.29;84.95;155030.06;5032212;28;20261;-93
2024/04/06 03:53:35;;;;;;;2.03;1.83;;;;;;;14.31;85.97;155035.25;5032495;28;20515;-92
2024/04/06 03:56:01;;;;;;;4.40;2.27;;;;;;;14.25;84.67;155020.94;5032885;28;20276;-92
2024/04/06 03:58:28;;;;;;;2.50;1.90;;;;;;;14.23;85.67;155015.78;5033130;28;20456;-92
2024/04/06 04:00:55;;;;;;;2.43;2.23;;;;;;;14.20;84.86;155007.97;5031574;28;20796;-92
2024/04/06 04:03:21;;;;;;;3.40;2.63;;;;;;;14.20;86.14;155007.97;5017354;28;20455;-92
2024/04/06 04:05:47;;;;;;;2.43;2.23;;;;;;;14.16;85.96;154997.59;5017870;28;20456;-92
2024/04/06 04:08:16;;;;;;;3.20;2.13;;;;;;;14.13;85.70;154989.81;5032997;28;20795;-92
2024/04/06 04:10:42;;;;;;;2.63;2.43;;;;;;;14.12;86.45;154985.88;5033255;28;21062;-92
2024/04/06 04:13:11;;;;;;;2.10;1.90;;;;;;;14.08;85.75;154975.53;5033192;28;20476;-93
2024/04/06 04:15:38;;;;;;;2.70;2.40;;;;;;;14.06;86.42;154971.59;5015415;28;20206;-93
2024/04/06 04:18:05;;;;;;;3.70;2.07;;;;;;;14.02;85.34;154962.56;5033570;28;20447;-92
2024/04/06 04:20:31;;;;;;;2.80;2.07;;;;;;;14.01;85.13;154959.94;5012817;28;20452;-92
2024/04/06 04:22:57;;;;;;;5.77;2.30;;;;;;;13.99;85.47;154953.44;5021510;28;20436;-91
2024/04/06 04:25:23;;;;;;;3.77;2.60;;;;;;;13.93;84.24;154937.84;5041848;28;20851;-93
2024/04/06 04:27:50;;;;;;;3.17;2.70;;;;;;;13.95;85.94;154943.09;5018256;28;20482;-93
2024/04/06 04:30:15;;;;;;;2.77;2.33;;;;;;;13.93;86.41;154937.84;5032888;28;20238;-93
2024/04/06 04:32:43;;;;;;;7.00;2.90;;;;;;;13.91;86.72;154932.66;5033768;28;20467;-93
2024/04/06 04:35:09;;;;;;;2.37;2.17;;;;;;;13.89;86.41;154928.81;5032608;28;20210;-93
2024/04/06 04:37:38;;;;;;;3.13;2.73;;;;;;;13.88;87.18;154924.88;5032237;28;20836;-92
2024/04/06 04:40:05;;;;;;;2.67;2.43;;;;;;;13.83;86.89;154913.22;5030588;28;20257;-94
2024/04/06 04:42:31;;;;;;;4.53;3.43;;;;;;;13.80;85.71;154904.09;5032012;28;20929;-93
2024/04/06 04:45:01;;;;;;;3.60;2.57;;;;;;;13.79;86.00;154901.53;5032329;28;20445;-93
2024/04/06 04:47:28;;;;;;;3.43;2.60;;;;;;;13.78;86.41;154898.91;5031996;28;20432;-93
2024/04/06 04:49:55;;;;;;;3.23;2.77;;;;;;;13.76;86.25;154895.06;5032252;28;21290;-93
2024/04/06 04:52:21;;;;;;;3.37;2.50;;;;;;;13.77;86.86;154896.31;5013499;28;20443;-94
2024/04/06 04:54:47;;;;;;;3.80;2.57;;;;;;;13.74;87.14;154888.56;5031773;28;20825;-94
2024/04/06 04:57:13;;;;;;;3.40;2.47;;;;;;;13.70;87.12;154879.47;5030189;28;20440;-95
2024/04/06 04:59:39;;;;;;;2.77;2.30;;;;;;;13.67;86.46;154870.34;5002756;28;20337;-93
2024/04/06 05:02:05;;;;;;;3.37;3.07;;;;;;;13.70;87.25;154878.16;5031803;28;20432;-94
2024/04/06 05:04:31;;;;;;;3.97;2.20;;;;;;;13.67;87.76;154870.34;5030312;28;20309;-95
2024/04/06 05:06:59;;;;;;;3.70;2.40;;;;;;;13.65;86.75;154865.19;5011492;28;20484;-93
2024/04/06 05:09:25;;;;;;;3.23;2.23;;;;;;;13.67;87.10;154871.66;5030354;28;20558;-90
2024/04/06 05:11:51;;;;;;;2.97;2.47;;;;;;;13.66;87.29;154867.78;5028687;28;20444;-92
2024/04/06 05:14:17;;;;;;;3.67;2.40;;;;;;;13.67;87.62;154871.66;5028626;28;20367;-92
2024/04/06 05:16:45;;;;;;;2.53;2.10;;;;;;;13.65;86.93;154865.19;5028139;28;20451;-92
2024/04/06 05:19:10;;;;;;;3.60;2.33;;;;;;;13.69;87.28;154875.53;5008585;28;20207;-90
2024/04/06 05:21:37;;;;;;;2.50;2.30;;;;;;;13.71;88.00;154880.78;5028392;28;20533;-90
2024/04/06 05:24:04;;;;;;;3.13;2.53;;;;;;;13.70;87.08;154879.47;5010114;28;20206;-91
2024/04/06 05:26:31;;;;;;;4.50;2.20;;;;;;;13.71;86.81;154882.06;5009860;28;20530;-91
2024/04/06 05:28:56;;;;;;;2.77;2.40;;;;;;;13.77;87.41;154896.31;5011123;28;20464;-91
2024/04/06 05:31:23;;;;;;;3.80;2.33;;;;;;;13.76;87.83;154895.06;5002854;28;20535;-92
2024/04/06 05:33:49;;;;;;;3.20;2.23;;;;;;;13.78;88.03;154898.91;4998987;28;20226;-92
2024/04/06 05:36:16;;;;;;;4.97;3.40;;;;;;;13.81;87.55;154906.72;5007277;28;20499;-93
2024/04/06 05:38:42;;;;;;;3.90;2.90;;;;;;;13.86;88.30;154919.69;5004285;28;20949;-92
2024/04/06 05:41:10;;;;;;;3.10;2.30;;;;;;;13.88;88.79;154924.88;5007013;28;20456;-92
2024/04/06 05:43:36;;;;;;;4.10;2.50;;;;;;;13.89;88.18;154928.81;4998436;28;20224;-92
2024/04/06 05:46:04;;;;;;;2.50;2.30;;;;;;;13.93;88.59;154937.84;4998060;28;21021;-93
2024/04/06 05:48:31;;;;;;;3.77;2.33;;;;;;;13.97;88.19;154949.56;4993766;28;20226;-91
2024/04/06 05:50:58;;;;;;;3.30;2.10;;;;;;;14.02;86.79;154962.56;5002629;28;20979;-94
2024/04/06 05:53:24;;;;;;;2.80;2.40;;;;;;;14.10;85.67;154982.03;5009365;28;20478;-94
2024/04/06 05:55:51;;;;;;;2.67;2.07;;;;;;;14.23;85.52;155014.47;4994081;28;20441;-94
2024/04/06 05:58:18;;;;;;;3.30;2.47;;;;;;;14.38;84.98;155054.75;5005366;28;20833;-94
2024/04/06 06:00:45;;;;;;;2.70;2.50;;;;;;;14.60;85.50;155111.94;5003385;28;21355;-94
2024/04/06 06:03:11;;;;;;;4.67;2.30;;;;;;;14.84;85.88;155171.66;5003403;28;20984;-95
2024/04/06 06:05:37;;;;;;;2.83;1.83;;;;;;;15.05;84.53;155226.22;5021406;28;20461;-94
2024/04/06 06:08:03;;;;;;;3.63;2.37;;;;;;;15.24;83.23;155276.94;5012093;28;20222;-94
2024/04/06 06:10:30;;;;;;;3.13;2.40;;;;;;;15.41;82.83;155318.53;4991922;28;20960;-93
2024/04/06 06:12:57;;;;;;;3.13;2.43;;;;;;;15.54;81.53;155353.63;4998766;28;20488;-94
2024/04/06 06:15:25;;;;;;;2.47;2.10;;;;;;;15.76;80.15;155410.84;5011405;28;20506;-93
2024/04/06 06:17:50;;;;;;;2.80;2.33;;;;;;;16.00;80.80;155470.63;5011420;28;20482;-93
2024/04/06 06:20:17;;;;;;;2.93;2.27;;;;;;;16.24;78.51;155533.06;5012456;28;20844;-94
2024/04/06 06:22:43;;;;;;;2.77;1.90;;;;;;;16.48;78.46;155594.16;5029023;28;20206;-94
2024/04/06 06:25:10;;;;;;;2.40;2.20;;;;;;;16.73;76.19;155659.28;5016036;28;20449;-94
2024/04/06 06:27:35;;;;;;;3.67;1.90;;;;;;;16.98;76.36;155724.31;5000674;28;20254;-94
2024/04/06 06:30:02;;;;;;;3.50;2.10;;;;;;;17.23;74.10;155788.09;5009179;28;20879;-94
2024/04/06 06:32:30;;;;;;;2.93;2.20;;;;;;;17.44;71.84;155844.06;5034715;28;20685;-94
2024/04/06 06:34:56;;;;;;;3.43;2.47;;;;;;;17.66;71.80;155900.06;5032496;28;20464;-94
2024/04/06 06:37:22;;;;;;;1.90;1.70;;;;;;;17.89;69.10;155959.97;5031653;28;20467;-94
2024/04/06 06:39:48;;;;;;;3.30;1.93;;;;;;;18.19;68.60;156038.09;5033101;28;20455;-92
2024/04/06 06:42:14;;;;;;;2.67;2.40;;;;;;;18.45;69.49;156103.22;5028955;28;20214;-92
2024/04/06 06:44:40;;;;;;;2.33;2.13;;;;;;;18.63;68.12;156151.47;5033052;28;20463;-93
2024/04/06 06:47:06;;;;;;;2.50;1.80;;;;;;;18.76;68.84;156184.03;4997133;28;20210;-91
2024/04/06 06:49:34;;;;;;;2.37;1.83;;;;;;;18.79;67.13;156191.84;5032061;28;20452;-91
2024/04/06 06:52:00;;;;;;;3.17;1.80;;;;;;;18.89;65.60;156217.91;5014075;28;20202;-91
2024/04/06 06:54:27;;;;;;;2.80;1.77;;;;;;;19.00;65.91;156245.28;5013230;28;20506;-91
2024/04/06 06:56:52;;;;;;;2.50;1.80;;;;;;;19.07;67.08;156264.81;5030197;28;20245;-92
2024/04/06 06:59:19;;;;;;;2.70;2.03;;;;;;;19.20;66.25;156298.69;5032018;28;20510;-91
2024/04/06 07:01:45;;;;;;;2.77;2.00;;;;;;;19.29;65.67;156322.16;5032376;28;20222;-91
2024/04/06 07:04:12;;;;;;;3.00;2.50;;;;;;;19.42;66.10;156354.78;5033006;28;20981;-91
2024/04/06 07:06:39;;;;;;;2.60;2.33;;;;;;;19.52;66.30;156379.53;5031360;28;20218;-90
2024/04/06 07:09:07;;;;;;;3.60;2.50;;;;;;;19.53;63.87;156382.16;5031772;28;20543;-91
2024/04/06 07:11:32;;;;;;;2.67;2.40;;;;;;;19.63;65.38;156408.22;5030681;28;20447;-91
2024/04/06 07:13:59;;;;;;;3.43;2.20;;;;;;;19.60;63.00;156400.41;5030535;28;21756;-91
2024/04/06 07:16:25;;;;;;;2.23;1.83;;;;;;;19.61;63.06;156403.03;5029845;28;20217;-91
2024/04/06 07:18:51;;;;;;;2.90;2.27;;;;;;;19.58;65.37;156396.50;5031393;28;20456;-91
2024/04/06 07:21:18;;;;;;;3.30;2.23;;;;;;;19.68;62.96;156422.56;5031007;28;20218;-90
2024/04/06 07:23:45;;;;;;;2.53;1.90;;;;;;;19.85;62.53;156465.63;5030457;28;20460;-91
2024/04/06 07:26:11;;;;;;;1.87;1.63;;;;;;;19.91;63.13;156481.22;5011204;28;20451;-90
2024/04/06 07:28:38;;;;;;;2.77;2.07;;;;;;;20.01;63.59;156507.34;5030856;28;20986;-91
2024/04/06 07:31:04;;;;;;;5.00;2.40;;;;;;;20.12;61.87;156536.00;5028891;28;20238;-89
2024/04/06 07:33:30;;;;;;;3.10;2.00;;;;;;;20.35;62.76;156596.06;5030071;28;20487;-91
2024/04/06 07:35:56;;;;;;;3.03;2.03;;;;;;;20.58;58.90;156654.75;5010132;28;20491;-91
2024/04/06 07:38:22;;;;;;;2.30;2.10;;;;;;;20.79;60.62;156708.22;5030118;28;20530;-91
2024/04/06 07:40:56;;;;;;;2.20;2.00;;;;;;;20.97;60.23;156756.50;5030593;28;20214;-91
2024/04/06 07:43:23;;;;;;;2.80;2.03;;;;;;;21.07;59.90;156781.38;5035038;28;20538;-91
2024/04/06 07:45:49;;;;;;;2.43;2.00;;;;;;;21.10;59.52;156789.22;5001118;28;20534;-92
2024/04/06 07:48:15;;;;;;;2.73;2.20;;;;;;;21.09;60.41;156786.59;5029463;28;20539;-92
2024/04/06 07:50:41;;;;;;;4.90;1.73;;;;;;;21.19;58.39;156812.69;5030461;28;20214;-91
2024/04/06 07:53:08;;;;;;;2.30;2.00;;;;;;;21.27;59.14;156833.56;5029131;28;21004;-91
2024/04/06 07:55:33;;;;;;;2.40;2.20;;;;;;;21.37;56.55;156858.34;4995703;28;20230;-91
2024/04/06 07:58:01;;;;;;;2.40;2.03;;;;;;;21.52;54.50;156897.53;5010595;28;20464;-91
2024/04/06 08:00:27;;;;;;;3.13;2.23;;;;;;;21.63;52.54;156926.28;5029116;28;20218;-91
2024/04/06 08:02:53;;;;;;;2.23;1.90;;;;;;;21.82;53.90;156977.16;5028539;28;20984;-91
2024/04/06 08:05:19;;;;;;;2.63;2.43;;;;;;;21.83;51.42;156978.47;5026149;28;20242;-91
2024/04/06 08:07:46;;;;;;;2.90;2.53;;;;;;;21.94;52.38;157005.94;5025965;28;20585;-90
2024/04/06 08:10:16;;;;;;;3.90;2.30;;;;;;;21.94;51.34;157007.25;5029023;28;20207;-90
2024/04/06 08:12:43;;;;;;;2.87;2.40;;;;;;;22.08;53.07;157042.53;5009799;28;20488;-90
2024/04/06 08:15:10;;;;;;;3.30;2.30;;;;;;;22.12;52.19;157052.94;5026073;28;20479;-91
2024/04/06 08:17:39;;;;;;;4.40;2.13;;;;;;;22.20;53.61;157075.16;5029254;28;20460;-89
2024/04/06 08:20:06;;;;;;;2.77;2.07;;;;;;;22.30;51.59;157099.94;5026966;28;20452;-89
2024/04/06 08:22:32;;;;;;;4.60;2.13;;;;;;;22.44;53.89;157136.53;5009108;28;20474;-89
2024/04/06 08:24:58;;;;;;;2.80;2.33;;;;;;;22.56;54.28;157167.88;5008681;28;20822;-90
2024/04/06 08:27:29;;;;;;;3.93;2.10;;;;;;;22.64;54.70;157188.81;5027323;28;20502;-90
2024/04/06 08:29:55;;;;;;;2.13;1.80;;;;;;;22.73;51.30;157211.03;5026142;28;20321;-90
2024/04/06 08:32:23;;;;;;;2.80;2.13;;;;;;;22.82;52.44;157235.84;5027937;28;20524;-90
2024/04/06 08:34:53;;;;;;;3.80;2.07;;;;;;;22.81;50.85;157231.94;5029047;28;20760;-90
2024/04/06 08:37:19;;;;;;;2.10;1.80;;;;;;;22.81;50.99;157233.25;5027663;28;21108;-89
2024/04/06 08:39:45;;;;;;;2.73;2.20;;;;;;;22.87;50.13;157247.66;5028969;28;20812;-89
2024/04/06 08:42:12;;;;;;;2.00;1.70;;;;;;;22.88;47.62;157251.53;5025024;28;20534;-89
2024/04/06 08:44:42;;;;;;;2.43;1.90;;;;;;;22.94;47.59;157267.25;5028055;28;20617;-90
2024/04/06 08:47:10;;;;;;;2.10;1.80;;;;;;;22.92;46.64;157260.69;5028483;28;20478;-90
2024/04/06 08:49:37;;;;;;;1.93;1.63;;;;;;;22.94;47.51;157267.25;5010291;28;20957;-90
2024/04/06 08:52:04;;;;;;;2.27;1.80;;;;;;;22.97;47.92;157273.75;5027998;28;20451;-89
2024/04/06 08:54:29;;;;;;;2.07;1.70;;;;;;;23.01;47.19;157285.50;5009347;28;20499;-90
2024/04/06 08:56:58;;;;;;;2.40;2.13;;;;;;;22.85;45.42;157243.69;5009673;28;20476;-90
2024/04/06 08:59:23;;;;;;;2.53;1.97;;;;;;;22.58;46.55;157173.13;5025553;28;20625;-89
2024/04/06 09:01:50;;;;;;;3.20;2.30;;;;;;;22.51;48.24;157154.81;5027474;28;20530;-89
2024/04/06 09:04:15;;;;;;;2.87;1.70;;;;;;;22.56;48.31;157166.59;5025959;28;20625;-90
2024/04/06 09:06:45;;;;;;;2.57;2.00;;;;;;;22.71;47.52;157207.16;5026418;28;20451;-90
2024/04/06 09:09:11;;;;;;;3.27;2.40;;;;;;;22.74;49.78;157214.94;5010508;28;20221;-90
2024/04/06 09:11:38;;;;;;;2.00;1.60;;;;;;;22.81;49.42;157233.25;5026621;28;20479;-90
2024/04/06 09:14:07;;;;;;;2.00;1.70;;;;;;;22.91;47.73;157259.38;5028865;28;21068;-90
2024/04/06 09:16:34;;;;;;;3.40;2.20;;;;;;;22.99;48.17;157280.28;5010360;28;20455;-90
2024/04/06 09:18:59;;;;;;;2.80;2.00;;;;;;;23.07;49.99;157299.88;5028702;28;20467;-90
2024/04/06 09:21:26;;;;;;;2.00;1.80;;;;;;;23.06;47.45;157297.25;5027383;28;20513;-90
2024/04/06 09:23:53;;;;;;;3.30;2.20;;;;;;;23.19;47.31;157329.97;5031499;28;20213;-90
2024/04/06 09:26:21;;;;;;;2.47;2.00;;;;;;;23.26;50.06;157348.25;5025976;28;20543;-90
2024/04/06 09:28:48;;;;;;;2.30;2.10;;;;;;;23.17;46.68;157324.69;5009185;28;20803;-91
2024/04/06 09:31:19;;;;;;;2.50;2.10;;;;;;;23.21;46.09;157336.50;5027137;28;20574;-90
2024/04/06 09:33:45;;;;;;;2.23;1.93;;;;;;;23.26;45.06;157348.25;5025625;28;20510;-90
2024/04/06 09:36:13;;;;;;;2.27;1.60;;;;;;;23.30;44.11;157360.00;5027241;28;20471;-91
2024/04/06 09:38:39;;;;;;;2.10;1.60;;;;;;;23.40;42.76;157384.91;5027648;28;20459;-90
2024/04/06 09:41:07;;;;;;;1.60;1.40;;;;;;;23.45;42.44;157399.28;5008566;28;20448;-89
2024/04/06 09:43:33;;;;;;;3.33;2.03;;;;;;;23.45;43.55;157399.28;5026014;28;20521;-89
2024/04/06 09:45:59;;;;;;;1.90;1.47;;;;;;;23.45;45.64;157397.97;5024468;28;20443;-89
2024/04/06 09:48:27;;;;;;;1.97;1.77;;;;;;;23.42;43.44;157390.13;5027861;28;20268;-89
2024/04/06 09:50:54;;;;;;;2.00;1.50;;;;;;;23.42;43.07;157391.44;5025425;28;20452;-89
2024/04/06 09:53:19;;;;;;;2.37;2.10;;;;;;;23.48;45.38;157407.09;5027414;28;20459;-89
2024/04/06 09:55:46;;;;;;;1.90;1.70;;;;;;;23.40;47.44;157386.22;5026329;28;20463;-90
2024/04/06 09:58:15;;;;;;;2.23;1.70;;;;;;;23.34;46.22;157370.47;5028531;28;20210;-89
2024/04/06 10:00:46;;;;;;;3.00;1.80;;;;;;;23.37;43.79;157377.06;5011706;28;20531;-90
2024/04/06 10:03:12;;;;;;;2.00;1.60;;;;;;;23.34;45.84;157370.47;5029411;28;20460;-90
2024/04/06 10:05:39;;;;;;;2.30;1.87;;;;;;;23.38;43.44;157379.63;5012374;28;20833;-90
2024/04/06 10:08:07;;;;;;;2.37;1.50;;;;;;;23.45;43.83;157397.97;5011925;28;20452;-89
2024/04/06 10:10:33;;;;;;;2.20;1.60;;;;;;;23.57;41.91;157430.63;5027902;28;20782;-89
2024/04/06 10:13:03;;;;;;;1.77;1.43;;;;;;;23.68;41.87;157458.09;5012358;28;20452;-89
2024/04/06 10:15:32;;;;;;;1.90;1.60;;;;;;;23.69;42.45;157459.41;5028933;28;20471;-89
2024/04/06 10:17:58;;;;;;;3.90;1.70;;;;;;;23.59;41.53;157435.84;4997599;28;20975;-89
2024/04/06 10:20:26;;;;;;;1.90;1.50;;;;;;;23.61;39.63;157439.81;4996197;28;20476;-90
2024/04/06 10:22:52;;;;;;;2.00;1.40;;;;;;;23.66;40.49;157452.88;5029182;28;20214;-90
2024/04/06 10:25:26;;;;;;;1.80;1.50;;;;;;;23.75;41.19;157475.13;5028282;28;20542;-89
2024/04/06 10:27:59;;;;;;;2.90;1.63;;;;;;;23.79;39.78;157486.88;5027181;28;20842;-89
2024/04/06 10:30:26;;;;;;;2.13;1.80;;;;;;;23.85;41.90;157502.56;5011563;28;20483;-90
2024/04/06 10:32:53;;;;;;;1.83;1.40;;;;;;;23.80;39.13;157489.44;5012478;28;20452;-89
2024/04/06 10:35:19;;;;;;;1.37;1.13;;;;;;;23.77;36.31;157481.66;5027708;28;20841;-88
2024/04/06 10:37:45;;;;;;;3.93;1.30;;;;;;;23.81;33.62;157492.06;5029916;28;20459;-89
2024/04/06 10:40:12;;;;;;;1.33;1.23;;;;;;;23.91;33.45;157518.22;5010643;28;20478;-89
2024/04/06 10:42:38;;;;;;;3.30;1.10;;;;;;;23.89;39.18;157513.00;5030754;28;20630;-89
2024/04/06 10:45:05;;;;;;;2.00;1.30;;;;;;;23.68;38.41;157458.09;5011028;28;20474;-89
2024/04/06 10:47:30;;;;;;;1.60;1.10;;;;;;;23.55;37.17;157424.09;5027885;28;21001;-89
2024/04/06 10:49:58;;;;;;;2.03;1.33;;;;;;;23.50;38.78;157412.34;5027890;28;20464;-89
2024/04/06 10:52:24;;;;;;;1.83;1.50;;;;;;;23.41;40.97;157388.81;5027975;28;20219;-89
2024/04/06 10:54:50;;;;;;;1.47;1.10;;;;;;;23.43;35.51;157394.03;5030288;28;20852;-89
2024/04/06 10:57:16;;;;;;;1.53;1.17;;;;;;;23.59;34.30;157435.84;5029196;28;20214;-89
2024/04/06 10:59:43;;;;;;;1.80;1.20;;;;;;;23.66;40.25;157452.88;5013305;28;20502;-88
2024/04/06 11:02:08;;;;;;;1.70;1.17;;;;;;;23.57;39.37;157430.63;5033603;28;20580;-88
2024/04/06 11:04:40;;;;;;;1.97;1.30;;;;;;;23.49;39.33;157409.72;5031693;28;20451;-89
2024/04/06 11:07:07;;;;;;;1.60;1.20;;;;;;;23.46;34.93;157400.56;5029394;28;20210;-89
2024/04/06 11:09:34;;;;;;;2.47;1.20;;;;;;;23.62;33.91;157443.69;5027019;28;20455;-89
2024/04/06 11:12:00;;;;;;;1.43;1.23;;;;;;;23.78;35.88;157484.22;5030313;28;20919;-89
2024/04/06 11:14:27;;;;;;;2.83;1.40;;;;;;;23.77;32.83;157481.66;5029062;28;20502;-88
2024/04/06 11:16:52;;;;;;;1.47;1.03;;;;;;;23.83;38.25;157496.03;5028037;28;20448;-89
2024/04/06 11:19:20;;;;;;;1.60;1.17;;;;;;;23.82;37.51;157494.72;5029238;28;21011;-89
2024/04/06 11:21:45;;;;;;;1.77;0.90;;;;;;;23.75;35.60;157476.38;5027131;28;20230;-89